createdAt,value
2018-03-19T00:00:30.839Z,15.13
2018-03-19T00:02:58.422Z,15.87
2018-03-19T00:05:26.086Z,15.23
2018-03-19T00:07:53.912Z,16.50
2018-03-19T00:10:21.475Z,17.43
2018-03-19T00:12:49.112Z,17.87
2018-03-19T00:15:16.866Z,18.93
2018-03-19T00:17:44.685Z,18.73
2018-03-19T00:20:12.505Z,18.70
2018-03-19T00:22:40.061Z,18.17
2018-03-19T00:25:07.731Z,19.17
2018-03-19T00:27:35.458Z,19.27
2018-03-19T00:30:03.377Z,18.47
2018-03-19T00:32:30.958Z,18.23
2018-03-19T00:34:58.673Z,19.10
2018-03-19T00:37:26.413Z,17.90
2018-03-19T00:39:53.969Z,17.00
2018-03-19T00:42:21.537Z,17.83
2018-03-19T00:44:49.102Z,19.37
2018-03-19T00:47:16.893Z,20.27
2018-03-19T00:49:44.463Z,18.53
2018-03-19T00:52:12.085Z,18.10
2018-03-19T00:54:39.657Z,19.73
2018-03-19T00:57:07.296Z,17.63
2018-03-19T00:59:34.974Z,17.30
2018-03-19T01:02:02.607Z,19.57
2018-03-19T01:04:30.182Z,16.83
2018-03-19T01:06:57.745Z,17.60
2018-03-19T01:09:25.314Z,18.67
2018-03-19T01:11:52.875Z,18.23
2018-03-19T01:14:20.536Z,18.60
2018-03-19T01:16:48.101Z,18.30
2018-03-19T01:19:15.722Z,17.63
2018-03-19T01:21:43.553Z,18.20
2018-03-19T01:24:11.124Z,17.30
2018-03-19T01:26:38.859Z,18.60
2018-03-19T01:29:06.422Z,18.70
2018-03-19T01:31:33.991Z,18.97
2018-03-19T01:34:01.632Z,17.87
2018-03-19T01:36:29.251Z,18.50
2018-03-19T01:38:56.869Z,19.90
2018-03-19T01:41:24.565Z,19.17
2018-03-19T01:43:52.314Z,21.37
2018-03-19T01:46:20.012Z,19.73
2018-03-19T01:48:47.594Z,19.30
2018-03-19T01:51:15.775Z,20.83
2018-03-19T01:53:43.350Z,20.60
2018-03-19T01:56:10.919Z,22.43
2018-03-19T01:58:38.726Z,19.63
2018-03-19T02:01:06.294Z,21.40
2018-03-19T02:03:33.861Z,21.40
2018-03-19T02:06:01.446Z,21.83
2018-03-19T02:08:29.296Z,19.73
2018-03-19T02:10:56.870Z,19.77
2018-03-19T02:13:24.477Z,20.40
2018-03-19T02:15:52.098Z,20.93
2018-03-19T02:18:19.679Z,20.17
2018-03-19T02:20:47.257Z,22.33
2018-03-19T02:23:14.882Z,20.17
2018-03-19T02:25:42.596Z,20.77
2018-03-19T02:28:10.199Z,19.83
2018-03-19T02:30:37.761Z,15.90
2018-03-19T02:33:05.391Z,20.25
2018-03-19T02:35:32.963Z,18.73
2018-03-19T02:38:00.712Z,19.27
2018-03-19T02:40:28.319Z,20.63
2018-03-19T02:42:55.896Z,21.52
2018-03-19T02:45:23.506Z,21.97
2018-03-19T02:47:51.080Z,19.07
2018-03-19T02:50:18.901Z,21.00
2018-03-19T02:52:46.471Z,19.27
2018-03-19T02:55:14.340Z,18.80
2018-03-19T02:57:41.902Z,18.63
2018-03-19T03:00:09.522Z,19.77
2018-03-19T03:02:37.113Z,18.47
2018-03-19T03:05:04.733Z,17.57
2018-03-19T03:07:33.713Z,18.97
2018-03-19T03:10:01.433Z,19.67
2018-03-19T03:12:29.146Z,19.63
2018-03-19T03:14:56.701Z,20.97
2018-03-19T03:17:24.318Z,21.90
2018-03-19T03:19:51.939Z,20.80
2018-03-19T03:22:19.742Z,20.03
2018-03-19T03:24:47.314Z,20.53
2018-03-19T03:27:15.042Z,18.30
2018-03-19T03:29:42.796Z,20.73
2018-03-19T03:32:10.381Z,21.50
2018-03-19T03:34:38.016Z,20.93
2018-03-19T03:37:05.711Z,18.93
2018-03-19T03:39:33.328Z,20.60
2018-03-19T03:42:01.085Z,20.47
2018-03-19T03:44:28.684Z,21.47
2018-03-19T03:46:56.420Z,20.00
2018-03-19T03:49:23.981Z,18.30
2018-03-19T03:51:51.549Z,20.53
2018-03-19T03:54:19.376Z,21.23
2018-03-19T03:56:46.950Z,19.73
2018-03-19T03:59:14.676Z,21.13
2018-03-19T04:01:42.529Z,19.77
2018-03-19T04:04:10.348Z,21.43
2018-03-19T04:06:37.923Z,22.17
2018-03-19T04:09:05.786Z,22.77
2018-03-19T04:11:33.345Z,22.00
2018-03-19T04:14:01.120Z,22.07
2018-03-19T04:16:28.678Z,18.90
2018-03-19T04:18:56.337Z,20.13
2018-03-19T04:21:23.922Z,22.20
2018-03-19T04:23:51.729Z,21.47
2018-03-19T04:26:19.298Z,21.50
2018-03-19T04:28:46.894Z,21.03
2018-03-19T04:31:14.648Z,21.27
2018-03-19T04:33:42.467Z,20.93
2018-03-19T04:36:10.287Z,22.97
2018-03-19T04:38:37.852Z,22.73
2018-03-19T04:41:05.620Z,22.07
2018-03-19T04:43:33.438Z,22.23
2018-03-19T04:46:01.054Z,23.47
2018-03-19T04:48:28.771Z,21.97
2018-03-19T04:50:56.407Z,23.00
2018-03-19T04:53:23.984Z,22.83
2018-03-19T04:55:51.542Z,25.17
2018-03-19T04:58:19.226Z,23.17
2018-03-19T05:00:47.064Z,22.33
2018-03-19T05:03:15.354Z,21.90
2018-03-19T05:05:43.103Z,23.57
2018-03-19T05:08:10.802Z,21.23
2018-03-19T05:10:38.515Z,21.73
2018-03-19T05:13:06.091Z,23.03
2018-03-19T05:15:33.867Z,20.13
2018-03-19T05:18:01.634Z,18.90
2018-03-19T05:20:29.206Z,22.30
2018-03-19T05:22:56.798Z,23.33
2018-03-19T05:25:24.565Z,22.53
2018-03-19T05:27:52.134Z,22.30
2018-03-19T05:30:19.758Z,20.43
2018-03-19T05:32:47.502Z,22.83
2018-03-19T05:35:15.115Z,21.30
2018-03-19T05:37:42.694Z,20.73
2018-03-19T05:40:10.304Z,14.73
2018-03-19T05:42:37.899Z,16.23
2018-03-19T05:45:05.574Z,14.23
2018-03-19T05:47:33.196Z,14.73
2018-03-19T05:50:00.942Z,14.07
2018-03-19T05:52:28.750Z,14.30
2018-03-19T05:54:56.321Z,14.87
2018-03-19T05:57:23.974Z,15.13
2018-03-19T05:59:51.558Z,13.37
2018-03-19T06:02:19.300Z,13.93
2018-03-19T06:04:47.138Z,14.07
2018-03-19T06:07:14.720Z,10.70
2018-03-19T06:09:42.449Z,14.43
2018-03-19T06:12:10.007Z,14.30
2018-03-19T06:14:37.638Z,12.50
2018-03-19T06:17:05.327Z,14.20
2018-03-19T06:19:32.898Z,13.87
2018-03-19T06:22:00.479Z,14.60
2018-03-19T06:24:28.281Z,13.90
2018-03-19T06:26:55.949Z,18.37
2018-03-19T06:29:23.486Z,20.20
2018-03-19T06:31:51.235Z,18.10
2018-03-19T06:34:19.054Z,21.63
2018-03-19T06:36:46.872Z,19.47
2018-03-19T06:39:14.525Z,16.60
2018-03-19T06:41:42.223Z,18.57
2018-03-19T06:44:10.031Z,18.90
2018-03-19T06:46:37.600Z,45.97
2018-03-19T06:49:05.231Z,22.60
2018-03-19T06:51:32.817Z,18.30
2018-03-19T06:54:00.492Z,17.67
2018-03-19T06:56:28.317Z,16.93
2018-03-19T06:58:55.881Z,18.50
2018-03-19T07:01:23.475Z,21.00
2018-03-19T07:03:51.036Z,22.33
2018-03-19T07:06:18.707Z,21.57
2018-03-19T07:08:46.265Z,19.20
2018-03-19T07:11:13.915Z,21.50
2018-03-19T07:13:41.532Z,20.43
2018-03-19T07:16:09.140Z,21.33
2018-03-19T07:18:36.877Z,20.53
2018-03-19T07:21:04.450Z,19.23
2018-03-19T07:23:32.074Z,20.50
2018-03-19T07:25:59.723Z,22.80
2018-03-19T07:28:27.551Z,23.53
2018-03-19T07:30:55.369Z,21.83
2018-03-19T07:33:22.948Z,20.00
2018-03-19T07:35:50.705Z,22.00
2018-03-19T07:38:18.526Z,21.67
2018-03-19T07:40:46.146Z,19.93
2018-03-19T07:43:13.697Z,24.87
2018-03-19T07:45:41.449Z,20.53
2018-03-19T07:48:09.014Z,22.17
2018-03-19T07:50:36.585Z,23.60
2018-03-19T07:53:04.216Z,22.60
2018-03-19T07:55:32.050Z,20.37
2018-03-19T07:57:59.666Z,20.63
2018-03-19T08:00:27.624Z,21.00
2018-03-19T08:02:55.189Z,22.53
2018-03-19T08:05:22.758Z,19.97
2018-03-19T08:07:50.314Z,19.47
2018-03-19T08:10:17.889Z,20.70
2018-03-19T08:12:45.676Z,23.10
2018-03-19T08:15:13.499Z,22.27
2018-03-19T08:17:41.062Z,19.43
2018-03-19T08:20:08.637Z,21.83
2018-03-19T08:22:36.206Z,19.20
2018-03-19T08:25:03.862Z,19.60
2018-03-19T08:27:31.430Z,26.80
2018-03-19T08:29:58.994Z,23.33
2018-03-19T08:32:26.604Z,20.43
2018-03-19T08:34:54.320Z,18.30
2018-03-19T08:37:21.873Z,25.10
2018-03-19T08:39:49.443Z,21.40
2018-03-19T08:42:17.005Z,19.23
2018-03-19T08:44:44.810Z,20.30
2018-03-19T08:47:12.370Z,20.23
2018-03-19T08:49:39.987Z,18.17
2018-03-19T08:52:07.558Z,19.07
2018-03-19T08:54:35.381Z,17.73
2018-03-19T08:57:02.954Z,19.50
2018-03-19T08:59:30.525Z,17.10
2018-03-19T09:01:58.142Z,17.37
2018-03-19T09:04:25.698Z,17.50
2018-03-19T09:06:53.259Z,17.30
2018-03-19T09:09:21.092Z,21.47
2018-03-19T09:11:48.650Z,18.90
2018-03-19T09:14:16.301Z,17.93
2018-03-19T09:16:44.015Z,17.90
2018-03-19T09:19:11.569Z,15.90
2018-03-19T09:21:39.206Z,19.40
2018-03-19T09:24:06.996Z,18.17
2018-03-19T09:26:34.819Z,21.37
2018-03-19T09:29:02.427Z,18.33
2018-03-19T09:31:30.035Z,18.13
2018-03-19T09:33:57.610Z,19.60
2018-03-19T09:36:25.174Z,17.30
2018-03-19T09:38:52.746Z,19.07
2018-03-19T09:41:20.330Z,21.90
2018-03-19T09:43:48.031Z,18.20
2018-03-19T09:46:15.594Z,16.67
2018-03-19T09:48:43.159Z,17.87
2018-03-19T09:51:10.767Z,19.20
2018-03-19T09:53:38.325Z,60.03
2018-03-19T09:56:06.131Z,19.73
2018-03-19T09:58:33.690Z,25.00
2018-03-19T10:01:01.311Z,18.97
2018-03-19T10:03:29.063Z,20.53
2018-03-19T10:05:56.804Z,26.70
2018-03-19T10:08:24.621Z,16.47
2018-03-19T10:10:52.213Z,19.27
2018-03-19T10:13:19.867Z,19.87
2018-03-19T10:15:47.465Z,19.13
2018-03-19T10:18:15.092Z,21.20
2018-03-19T10:20:42.654Z,24.23
2018-03-19T10:23:10.401Z,18.30
2018-03-19T10:25:37.981Z,17.93
2018-03-19T10:28:05.548Z,19.40
2018-03-19T10:30:33.284Z,28.93
2018-03-19T10:33:00.859Z,30.40
2018-03-19T10:35:28.509Z,20.93
2018-03-19T10:37:56.147Z,20.53
2018-03-19T10:40:23.851Z,22.10
2018-03-19T10:42:51.439Z,23.97
2018-03-19T10:45:19.003Z,25.33
2018-03-19T10:47:46.582Z,24.73
2018-03-19T10:50:14.328Z,25.40
2018-03-19T10:52:41.915Z,65.40
2018-03-19T10:55:09.661Z,38.00
2018-03-19T10:57:37.235Z,32.37
2018-03-19T11:00:04.864Z,35.17
2018-03-19T11:02:32.612Z,81.00
2018-03-19T11:05:05.603Z,18.77
2018-03-19T11:07:38.829Z,31.20
2018-03-19T11:10:06.423Z,53.17
2018-03-19T12:31:49.716Z,27.17
2018-03-19T12:34:17.429Z,38.97
2018-03-19T12:36:45.004Z,62.10
2018-03-19T12:39:12.591Z,35.33
2018-03-19T12:41:40.281Z,28.43
2018-03-19T12:44:07.846Z,29.83
2018-03-19T12:46:35.414Z,35.43
2018-03-19T12:49:03.031Z,37.17
2018-03-19T12:51:31.399Z,34.57
2018-03-19T12:53:58.962Z,97.57
2018-03-19T12:56:26.566Z,28.67
2018-03-19T12:58:54.275Z,31.73
2018-03-19T13:01:21.846Z,28.70
2018-03-19T13:03:49.430Z,26.73
2018-03-19T13:06:16.993Z,29.70
2018-03-19T13:08:44.639Z,30.00
2018-03-19T13:11:12.343Z,84.97
2018-03-19T13:13:39.901Z,50.10
2018-03-19T13:16:07.735Z,51.63
2018-03-19T13:18:35.308Z,26.90
2018-03-19T13:21:02.974Z,32.20
2018-03-19T13:23:30.579Z,36.87
2018-03-19T13:25:58.205Z,30.97
2018-03-19T13:28:25.776Z,28.77
2018-03-19T13:30:53.343Z,26.43
2018-03-19T13:33:21.060Z,29.53
2018-03-19T13:35:48.658Z,26.63
2018-03-19T13:38:16.222Z,24.50
2018-03-19T13:40:43.813Z,25.43
2018-03-19T13:43:11.384Z,24.77
2018-03-19T13:45:38.951Z,27.00
2018-03-19T13:48:06.539Z,26.57
2018-03-19T13:50:34.109Z,28.47
2018-03-19T13:53:01.698Z,31.03
2018-03-19T13:55:29.261Z,30.87
2018-03-19T13:57:56.901Z,34.23
2018-03-19T14:00:24.462Z,30.37
2018-03-19T14:02:52.022Z,34.50
2018-03-19T14:05:19.589Z,33.10
2018-03-19T14:07:47.161Z,28.13
2018-03-19T14:10:14.749Z,29.77
2018-03-19T14:12:42.432Z,28.83
2018-03-19T14:15:10.189Z,30.97
2018-03-19T14:17:37.807Z,26.30
2018-03-19T14:20:05.428Z,39.20
2018-03-19T14:22:32.982Z,26.57
2018-03-19T14:25:00.544Z,31.87
2018-03-19T14:27:28.120Z,26.93
2018-03-19T14:29:55.687Z,28.67
2018-03-19T14:32:23.283Z,24.77
2018-03-19T14:34:50.866Z,26.60
2018-03-19T14:37:18.448Z,25.87
2018-03-19T14:39:46.012Z,23.53
2018-03-19T14:42:13.703Z,26.83
2018-03-19T14:44:41.286Z,27.17
2018-03-19T14:47:08.846Z,28.27
2018-03-19T14:49:36.490Z,26.53
2018-03-19T14:52:04.137Z,39.33
2018-03-19T14:54:31.758Z,39.63
2018-03-19T14:56:59.361Z,40.27
2018-03-19T14:59:26.941Z,58.57
2018-03-19T15:01:54.505Z,33.70
2018-03-19T15:04:22.823Z,26.00
2018-03-19T15:06:50.391Z,23.77
2018-03-19T15:09:17.951Z,71.33
2018-03-19T15:11:45.555Z,88.80
2018-03-19T15:14:13.171Z,32.93
2018-03-19T15:16:40.718Z,33.80
2018-03-19T15:19:08.333Z,67.60
2018-03-19T15:21:35.901Z,36.37
2018-03-19T15:24:03.566Z,92.17
2018-03-19T15:26:31.185Z,81.53
2018-03-19T15:28:58.742Z,55.37
2018-03-19T15:31:26.319Z,26.50
2018-03-19T15:33:53.947Z,59.57
2018-03-19T15:36:21.552Z,120.83
2018-03-19T15:38:49.131Z,36.90
2018-03-19T15:41:16.710Z,81.77
2018-03-19T15:43:44.287Z,29.57
2018-03-19T15:46:11.871Z,28.63
2018-03-19T15:48:39.493Z,26.93
2018-03-19T15:51:07.156Z,31.80
2018-03-19T15:53:34.743Z,55.40
2018-03-19T15:56:02.330Z,42.30
2018-03-19T15:58:29.899Z,34.93
2018-03-19T16:00:57.478Z,35.93
2018-03-19T16:03:25.048Z,38.50
2018-03-19T16:05:52.736Z,46.83
2018-03-19T16:08:20.384Z,40.40
2018-03-19T16:10:47.995Z,31.07
2018-03-19T16:13:15.719Z,33.27
2018-03-19T16:15:43.301Z,34.37
2018-03-19T16:18:10.881Z,33.23
2018-03-19T16:20:38.673Z,41.07
2018-03-19T16:23:06.262Z,41.13
2018-03-19T16:25:33.911Z,34.77
2018-03-19T16:28:01.514Z,36.87
2018-03-19T16:30:29.087Z,37.83
2018-03-19T16:32:56.694Z,36.40
2018-03-19T16:35:24.254Z,45.53
2018-03-19T16:37:51.816Z,40.83
2018-03-19T16:40:19.460Z,43.20
2018-03-19T16:42:47.015Z,50.40
2018-03-19T16:45:14.577Z,43.97
2018-03-19T16:47:42.273Z,40.67
2018-03-19T16:50:09.895Z,50.53
2018-03-19T16:52:37.511Z,46.73
2018-03-19T16:55:05.084Z,48.90
2018-03-19T16:57:32.651Z,39.40
2018-03-19T17:00:00.228Z,44.00
2018-03-19T17:02:27.806Z,43.70
2018-03-19T17:04:55.362Z,53.03
2018-03-19T17:07:22.967Z,40.13
2018-03-19T17:09:50.532Z,36.80
2018-03-19T17:12:18.147Z,37.93
2018-03-19T17:14:45.714Z,35.27
2018-03-19T17:17:13.275Z,37.53
2018-03-19T17:19:40.894Z,44.10
2018-03-19T17:22:08.490Z,32.03
2018-03-19T17:24:36.423Z,31.73
2018-03-19T17:27:04.057Z,33.70
2018-03-19T17:29:31.625Z,42.83
2018-03-19T17:31:59.234Z,35.43
2018-03-19T17:34:26.810Z,40.30
2018-03-19T17:36:54.374Z,40.63
2018-03-19T17:39:21.929Z,40.77
2018-03-19T17:41:49.522Z,31.57
2018-03-19T17:44:17.138Z,32.83
2018-03-19T17:46:44.735Z,53.03
2018-03-19T17:49:12.301Z,45.10
2018-03-19T17:51:39.898Z,34.83
2018-03-19T17:54:08.382Z,42.47
2018-03-19T17:56:36.005Z,61.87
2018-03-19T17:59:03.593Z,50.03
2018-03-19T18:01:31.176Z,100.50
2018-03-19T18:03:58.780Z,106.73
2018-03-19T18:06:26.345Z,86.70
2018-03-19T18:08:54.134Z,74.63
2018-03-19T18:11:21.876Z,63.40
2018-03-19T18:13:49.570Z,64.20
2018-03-19T18:16:17.138Z,34.03
2018-03-19T18:18:44.698Z,28.17
2018-03-19T18:21:12.272Z,30.97
2018-03-19T18:23:39.973Z,26.23
2018-03-19T18:26:07.562Z,27.07
2018-03-19T18:28:35.213Z,24.43
2018-03-19T18:31:02.826Z,30.07
2018-03-19T18:33:30.403Z,40.10
2018-03-19T18:35:57.977Z,36.57
2018-03-19T18:38:25.598Z,31.97
2018-03-19T18:40:53.404Z,34.57
2018-03-19T18:43:20.982Z,30.80
2018-03-19T18:45:48.701Z,29.87
2018-03-19T18:48:16.558Z,32.60
2018-03-19T18:50:44.147Z,25.67
2018-03-19T18:53:11.710Z,31.43
2018-03-19T18:55:39.314Z,58.33
2018-03-19T18:58:06.890Z,40.13
2018-03-19T19:00:34.475Z,47.50
2018-03-19T19:03:02.159Z,59.20
2018-03-19T19:05:29.941Z,48.13
2018-03-19T19:07:57.671Z,46.87
2018-03-19T19:10:25.525Z,27.10
2018-03-19T19:12:53.339Z,28.60
2018-03-19T19:15:20.959Z,26.17
2018-03-19T19:17:48.554Z,33.23
2018-03-19T19:20:16.125Z,34.63
2018-03-19T19:22:43.768Z,40.57
2018-03-19T19:25:11.335Z,89.17
2018-03-19T19:27:38.914Z,95.40
2018-03-19T19:30:06.508Z,45.67
2018-03-19T19:32:34.284Z,35.80
2018-03-19T19:35:02.217Z,48.93
2018-03-19T19:37:30.021Z,48.70
2018-03-19T19:39:57.837Z,31.40
2018-03-19T19:42:25.650Z,68.57
2018-03-19T19:44:53.475Z,74.40
2018-03-19T19:47:21.088Z,57.37
2018-03-19T19:49:48.726Z,46.90
2018-03-19T19:52:16.308Z,34.43
2018-03-19T19:54:43.936Z,47.77
2018-03-19T19:57:11.556Z,45.83
2018-03-19T19:59:39.128Z,46.70
2018-03-19T20:02:06.708Z,50.30
2018-03-19T20:04:34.309Z,31.43
2018-03-19T20:07:01.932Z,66.87
2018-03-19T20:09:29.502Z,50.47
2018-03-19T20:11:57.067Z,35.23
2018-03-19T20:14:24.707Z,30.60
2018-03-19T20:16:52.330Z,38.73
2018-03-19T20:19:19.886Z,31.43
2018-03-19T20:21:47.478Z,29.27
2018-03-19T20:24:15.329Z,29.53
2018-03-19T20:26:42.924Z,29.17
2018-03-19T20:29:10.574Z,35.70
2018-03-19T20:31:38.200Z,35.00
2018-03-19T20:34:05.826Z,32.67
2018-03-19T20:36:33.713Z,30.13
2018-03-19T20:39:01.318Z,33.50
2018-03-19T20:41:29.031Z,33.13
2018-03-19T20:43:56.698Z,29.70
2018-03-19T20:46:24.524Z,31.93
2018-03-19T20:48:52.134Z,29.87
2018-03-19T20:51:19.770Z,30.07
2018-03-19T20:53:47.486Z,44.33
2018-03-19T20:56:15.297Z,28.43
2018-03-19T20:58:43.128Z,33.33
2018-03-19T21:01:10.823Z,26.30
2018-03-19T21:03:38.467Z,33.07
2018-03-19T21:06:06.034Z,33.97
2018-03-19T21:08:33.760Z,38.57
2018-03-19T21:11:01.607Z,34.77
2018-03-19T21:13:29.326Z,39.30
2018-03-19T21:15:57.143Z,24.67
2018-03-19T21:18:24.747Z,32.97
2018-03-19T21:20:52.314Z,59.33
2018-03-19T21:23:19.968Z,57.57
2018-03-19T21:25:47.558Z,31.83
2018-03-19T21:28:15.166Z,23.73
2018-03-19T21:30:42.793Z,24.83
2018-03-19T21:33:10.368Z,26.03
2018-03-19T21:35:38.000Z,27.77
2018-03-19T21:38:05.613Z,23.47
2018-03-19T21:40:33.349Z,37.87
2018-03-19T21:43:01.144Z,26.93
2018-03-19T21:45:28.960Z,29.43
2018-03-19T21:47:56.784Z,29.70
2018-03-19T21:50:24.598Z,22.40
2018-03-19T21:52:52.181Z,18.30
2018-03-19T21:55:19.746Z,21.77
2018-03-19T21:57:47.322Z,18.27
2018-03-19T22:00:14.891Z,19.80
2018-03-19T22:02:42.479Z,20.57
2018-03-19T22:05:10.304Z,20.83
2018-03-19T22:07:37.888Z,21.07
2018-03-19T22:10:05.741Z,23.37
2018-03-19T22:12:33.331Z,26.73
2018-03-19T22:15:01.044Z,23.67
2018-03-19T22:17:28.601Z,24.87
2018-03-19T22:19:56.218Z,22.33
2018-03-19T22:22:23.793Z,23.87
2018-03-19T22:24:51.354Z,18.50
2018-03-19T22:27:18.933Z,18.43
2018-03-19T22:29:46.490Z,20.40
2018-03-19T22:32:14.059Z,33.43
2018-03-19T22:34:41.819Z,18.47
2018-03-19T22:37:09.386Z,17.23
2018-03-19T22:39:37.066Z,16.97
2018-03-19T22:42:04.874Z,20.67
2018-03-19T22:44:32.449Z,21.20
2018-03-19T22:47:00.078Z,24.27
2018-03-19T22:49:27.794Z,20.43
2018-03-19T22:51:55.427Z,20.00
2018-03-19T22:54:22.994Z,22.00
2018-03-19T22:56:50.550Z,19.50
2018-03-19T22:59:18.299Z,21.33
2018-03-19T23:01:45.905Z,18.67
2018-03-19T23:04:13.529Z,17.30
2018-03-19T23:06:41.098Z,17.73
2018-03-19T23:09:08.771Z,18.40
2018-03-19T23:11:36.335Z,20.43
2018-03-19T23:14:03.898Z,17.90
2018-03-19T23:16:31.466Z,16.33
2018-03-19T23:18:59.031Z,16.67
2018-03-19T23:21:26.860Z,16.90
2018-03-19T23:23:54.467Z,16.77
2018-03-19T23:26:22.196Z,18.10
2018-03-19T23:28:50.015Z,17.33
2018-03-19T23:31:17.574Z,17.43
2018-03-19T23:33:45.139Z,17.93
2018-03-19T23:36:12.702Z,16.17
2018-03-19T23:38:40.377Z,17.13
2018-03-19T23:41:07.933Z,16.20
2018-03-19T23:43:35.486Z,15.47
2018-03-19T23:46:03.070Z,15.67
2018-03-19T23:48:30.859Z,15.63
2018-03-19T23:50:58.422Z,13.60
2018-03-19T23:53:25.980Z,14.67
2018-03-19T23:55:53.550Z,14.80
2018-03-19T23:58:21.330Z,17.17
